sensor_id;sensor_type;location;lat;lon;timestamp;P1;durP1;ratioP1;P2;durP2;ratioP2
75516;SDS011;64097;52.548;13.406;2023-03-03T06:03:49;11.77;;;8.80;;
75516;SDS011;64097;52.548;13.406;2023-03-03T06:06:15;12.35;;;9.30;;
75516;SDS011;64097;52.548;13.406;2023-03-03T06:08:43;11.57;;;8.77;;
75516;SDS011;64097;52.548;13.406;2023-03-03T06:11:09;12.20;;;8.77;;
75516;SDS011;64097;52.548;13.406;2023-03-03T06:13:35;11.82;;;8.82;;
75516;SDS011;64097;52.548;13.406;2023-03-03T06:16:01;15.60;;;8.50;;
75516;SDS011;64097;52.548;13.406;2023-03-03T06:18:27;12.45;;;8.02;;
75516;SDS011;64097;52.548;13.406;2023-03-03T06:20:53;56.80;;;10.68;;
75516;SDS011;64097;52.548;13.406;2023-03-03T06:23:19;11.68;;;8.13;;
75516;SDS011;64097;52.548;13.406;2023-03-03T06:25:45;11.48;;;8.80;;
75516;SDS011;64097;52.548;13.406;2023-03-03T06:28:12;7.72;;;6.32;;
75516;SDS011;64097;52.548;13.406;2023-03-03T06:30:38;9.45;;;7.35;;
75516;SDS011;64097;52.548;13.406;2023-03-03T06:33:04;10.50;;;8.32;;
75516;SDS011;64097;52.548;13.406;2023-03-03T06:35:29;9.38;;;7.70;;
75516;SDS011;64097;52.548;13.406;2023-03-03T06:37:55;49.08;;;9.43;;
75516;SDS011;64097;52.548;13.406;2023-03-03T06:40:21;10.05;;;7.65;;
75516;SDS011;64097;52.548;13.406;2023-03-03T06:42:47;10.30;;;7.80;;
75516;SDS011;64097;52.548;13.406;2023-03-03T06:45:13;8.20;;;7.00;;
75516;SDS011;64097;52.548;13.406;2023-03-03T06:47:39;9.65;;;7.00;;
75516;SDS011;64097;52.548;13.406;2023-03-03T06:50:05;9.13;;;7.13;;
75516;SDS011;64097;52.548;13.406;2023-03-03T06:52:32;10.07;;;7.50;;
75516;SDS011;64097;52.548;13.406;2023-03-03T06:54:58;10.57;;;8.55;;
75516;SDS011;64097;52.548;13.406;2023-03-03T06:57:30;9.98;;;7.40;;
75516;SDS011;64097;52.548;13.406;2023-03-03T07:00:17;9.43;;;7.22;;
75516;SDS011;64097;52.548;13.406;2023-03-03T07:02:52;10.88;;;8.00;;
75516;SDS011;64097;52.548;13.406;2023-03-03T07:05:24;11.38;;;8.77;;
75516;SDS011;64097;52.548;13.406;2023-03-03T07:07:53;11.68;;;8.95;;
75516;SDS011;64097;52.548;13.406;2023-03-03T07:10:38;11.13;;;8.38;;
75516;SDS011;64097;52.548;13.406;2023-03-03T07:13:23;10.20;;;7.35;;
75516;SDS011;64097;52.548;13.406;2023-03-03T07:15:58;11.73;;;8.68;;
75516;SDS011;64097;52.548;13.406;2023-03-03T07:18:47;14.00;;;10.07;;
75516;SDS011;64097;52.548;13.406;2023-03-03T07:23:42;14.93;;;10.70;;
75516;SDS011;64097;52.548;13.406;2023-03-03T07:26:13;13.70;;;9.88;;
75516;SDS011;64097;52.548;13.406;2023-03-03T07:28:43;16.67;;;9.05;;
75516;SDS011;64097;52.548;13.406;2023-03-03T07:31:58;15.43;;;10.13;;
75516;SDS011;64097;52.548;13.406;2023-03-03T07:36:43;12.63;;;8.82;;
75516;SDS011;64097;52.548;13.406;2023-03-03T07:41:47;12.27;;;8.65;;
75516;SDS011;64097;52.548;13.406;2023-03-03T07:44:21;12.38;;;9.18;;
75516;SDS011;64097;52.548;13.406;2023-03-03T07:47:15;13.30;;;9.40;;
75516;SDS011;64097;52.548;13.406;2023-03-03T07:49:45;11.32;;;8.07;;
75516;SDS011;64097;52.548;13.406;2023-03-03T07:55:00;11.85;;;8.45;;
75516;SDS011;64097;52.548;13.406;2023-03-03T07:57:43;12.30;;;9.18;;
75516;SDS011;64097;52.548;13.406;2023-03-03T08:02:42;12.40;;;8.65;;
75516;SDS011;64097;52.548;13.406;2023-03-03T08:05:20;11.52;;;8.25;;
75516;SDS011;64097;52.548;13.406;2023-03-03T08:08:26;10.85;;;8.30;;
75516;SDS011;64097;52.548;13.406;2023-03-03T08:10:55;12.85;;;8.95;;
75516;SDS011;64097;52.548;13.406;2023-03-03T08:13:23;11.38;;;7.88;;
75516;SDS011;64097;52.548;13.406;2023-03-03T08:16:38;12.25;;;8.57;;
75516;SDS011;64097;52.548;13.406;2023-03-03T08:18:41;11.30;;;8.35;;
75516;SDS011;64097;52.548;13.406;2023-03-03T08:21:15;13.65;;;9.82;;
75516;SDS011;64097;52.548;13.406;2023-03-03T08:23:44;10.55;;;7.38;;
75516;SDS011;64097;52.548;13.406;2023-03-03T08:26:10;10.52;;;7.50;;
75516;SDS011;64097;52.548;13.406;2023-03-03T08:28:38;11.10;;;7.55;;
75516;SDS011;64097;52.548;13.406;2023-03-03T08:31:04;12.73;;;9.07;;
75516;SDS011;64097;52.548;13.406;2023-03-03T08:33:30;12.48;;;8.55;;
75516;SDS011;64097;52.548;13.406;2023-03-03T08:35:56;11.73;;;8.55;;
75516;SDS011;64097;52.548;13.406;2023-03-03T08:38:22;11.13;;;8.45;;
75516;SDS011;64097;52.548;13.406;2023-03-03T08:40:48;10.07;;;7.60;;
75516;SDS011;64097;52.548;13.406;2023-03-03T08:43:14;10.90;;;8.27;;
75516;SDS011;64097;52.548;13.406;2023-03-03T08:45:44;9.43;;;7.07;;
75516;SDS011;64097;52.548;13.406;2023-03-03T08:48:11;9.65;;;7.28;;
75516;SDS011;64097;52.548;13.406;2023-03-03T08:50:37;10.63;;;7.35;;
75516;SDS011;64097;52.548;13.406;2023-03-03T08:53:03;12.15;;;8.05;;
75516;SDS011;64097;52.548;13.406;2023-03-03T08:55:29;10.38;;;7.28;;
75516;SDS011;64097;52.548;13.406;2023-03-03T08:57:55;10.55;;;7.20;;
75516;SDS011;64097;52.548;13.406;2023-03-03T09:00:21;10.00;;;6.78;;
75516;SDS011;64097;52.548;13.406;2023-03-03T09:02:47;12.98;;;8.52;;
75516;SDS011;64097;52.548;13.406;2023-03-03T09:05:14;8.93;;;6.97;;
75516;SDS011;64097;52.548;13.406;2023-03-03T09:07:42;12.13;;;8.00;;
75516;SDS011;64097;52.548;13.406;2023-03-03T09:10:10;10.88;;;8.18;;
75516;SDS011;64097;52.548;13.406;2023-03-03T09:12:38;8.85;;;6.85;;
75516;SDS011;64097;52.548;13.406;2023-03-03T09:17:51;9.68;;;7.13;;
75516;SDS011;64097;52.548;13.406;2023-03-03T09:20:26;11.18;;;7.57;;
75516;SDS011;64097;52.548;13.406;2023-03-03T09:26:07;10.23;;;7.57;;
75516;SDS011;64097;52.548;13.406;2023-03-03T09:34:35;10.23;;;7.88;;
75516;SDS011;64097;52.548;13.406;2023-03-03T09:39:50;10.57;;;7.35;;
75516;SDS011;64097;52.548;13.406;2023-03-03T09:45:18;9.95;;;7.57;;
75516;SDS011;64097;52.548;13.406;2023-03-03T09:50:59;9.30;;;7.25;;
75516;SDS011;64097;52.548;13.406;2023-03-03T09:56:24;10.13;;;7.50;;
75516;SDS011;64097;52.548;13.406;2023-03-03T09:59:23;10.20;;;7.60;;
75516;SDS011;64097;52.548;13.406;2023-03-03T10:12:46;12.23;;;9.48;;
75516;SDS011;64097;52.548;13.406;2023-03-03T10:18:35;11.55;;;9.48;;
75516;SDS011;64097;52.548;13.406;2023-03-03T10:35:17;11.07;;;8.38;;
75516;SDS011;64097;52.548;13.406;2023-03-03T10:46:48;10.32;;;7.97;;
75516;SDS011;64097;52.548;13.406;2023-03-03T10:49:39;12.30;;;9.18;;
75516;SDS011;64097;52.548;13.406;2023-03-03T10:52:35;13.20;;;9.35;;
75516;SDS011;64097;52.548;13.406;2023-03-03T11:05:50;13.90;;;10.02;;
75516;SDS011;64097;52.548;13.406;2023-03-03T11:11:17;16.23;;;10.85;;
75516;SDS011;64097;52.548;13.406;2023-03-03T11:14:10;14.75;;;10.55;;
75516;SDS011;64097;52.548;13.406;2023-03-03T11:38:16;17.83;;;11.75;;
75516;SDS011;64097;52.548;13.406;2023-03-03T11:40:48;17.33;;;12.48;;
75516;SDS011;64097;52.548;13.406;2023-03-03T11:43:27;17.95;;;11.60;;
75516;SDS011;64097;52.548;13.406;2023-03-03T11:46:03;16.83;;;11.57;;
75516;SDS011;64097;52.548;13.406;2023-03-03T11:48:39;20.08;;;12.30;;
75516;SDS011;64097;52.548;13.406;2023-03-03T11:51:14;17.98;;;12.25;;
75516;SDS011;64097;52.548;13.406;2023-03-03T11:56:29;17.52;;;11.35;;
75516;SDS011;64097;52.548;13.406;2023-03-03T12:02:00;17.83;;;12.10;;
75516;SDS011;64097;52.548;13.406;2023-03-03T12:04:41;18.52;;;12.32;;
75516;SDS011;64097;52.548;13.406;2023-03-03T12:10:18;16.87;;;10.90;;
75516;SDS011;64097;52.548;13.406;2023-03-03T12:13:26;13.38;;;9.70;;
75516;SDS011;64097;52.548;13.406;2023-03-03T12:19:03;17.63;;;12.15;;
75516;SDS011;64097;52.548;13.406;2023-03-03T12:40:59;18.35;;;11.98;;
75516;SDS011;64097;52.548;13.406;2023-03-03T12:46:05;15.85;;;11.15;;
75516;SDS011;64097;52.548;13.406;2023-03-03T12:48:40;16.95;;;11.00;;
75516;SDS011;64097;52.548;13.406;2023-03-03T13:02:48;15.00;;;10.30;;
75516;SDS011;64097;52.548;13.406;2023-03-03T13:08:32;15.13;;;10.95;;
75516;SDS011;64097;52.548;13.406;2023-03-03T13:14:36;19.50;;;12.82;;
75516;SDS011;64097;52.548;13.406;2023-03-03T13:16:44;17.90;;;12.27;;
75516;SDS011;64097;52.548;13.406;2023-03-03T13:19:28;16.15;;;11.65;;
75516;SDS011;64097;52.548;13.406;2023-03-03T13:22:12;16.83;;;11.38;;
75516;SDS011;64097;52.548;13.406;2023-03-03T13:27:44;17.10;;;12.00;;
75516;SDS011;64097;52.548;13.406;2023-03-03T13:30:15;16.10;;;11.15;;
75516;SDS011;64097;52.548;13.406;2023-03-03T13:32:51;16.63;;;11.98;;
75516;SDS011;64097;52.548;13.406;2023-03-03T13:38:17;18.60;;;12.98;;
75516;SDS011;64097;52.548;13.406;2023-03-03T13:41:10;19.48;;;13.27;;
75516;SDS011;64097;52.548;13.406;2023-03-03T13:44:03;19.25;;;12.57;;
75516;SDS011;64097;52.548;13.406;2023-03-03T13:49:32;18.73;;;13.13;;
75516;SDS011;64097;52.548;13.406;2023-03-03T13:52:21;19.60;;;11.82;;
